sensor_id;sensor_type;location;lat;lon;timestamp;pressure;altitude;pressure_sealevel;temperature;humidity
16821;BME280;8527;49.740;6.604;2023-02-16T00:00:47;100833.06;;;0.49;99.32
16821;BME280;8527;49.740;6.604;2023-02-16T00:05:46;100836.75;;;0.45;98.99
16821;BME280;8527;49.740;6.604;2023-02-16T00:10:50;100842.78;;;0.28;97.75
16821;BME280;8527;49.740;6.604;2023-02-16T00:16:01;100844.63;;;0.26;98.43
16821;BME280;8527;49.740;6.604;2023-02-16T00:21:05;100844.00;;;0.21;98.61
16821;BME280;8527;49.740;6.604;2023-02-16T00:26:12;100838.94;;;0.18;99.14
16821;BME280;8527;49.740;6.604;2023-02-16T00:31:20;100841.69;;;0.15;99.98
16821;BME280;8527;49.740;6.604;2023-02-16T00:36:21;100842.75;;;0.10;98.75
16821;BME280;8527;49.740;6.604;2023-02-16T00:41:23;100829.78;;;0.09;98.66
16821;BME280;8527;49.740;6.604;2023-02-16T00:46:34;100832.06;;;-0.03;98.00
16821;BME280;8527;49.740;6.604;2023-02-16T00:51:33;100820.53;;;-0.16;98.16
16821;BME280;8527;49.740;6.604;2023-02-16T00:56:34;100821.22;;;-0.12;98.47
16821;BME280;8527;49.740;6.604;2023-02-16T01:01:34;100816.28;;;-0.19;98.77
16821;BME280;8527;49.740;6.604;2023-02-16T01:06:33;100807.34;;;-0.13;99.03
16821;BME280;8527;49.740;6.604;2023-02-16T01:11:46;100822.22;;;-0.15;100.00
16821;BME280;8527;49.740;6.604;2023-02-16T01:16:45;100818.13;;;-0.21;99.30
16821;BME280;8527;49.740;6.604;2023-02-16T01:21:43;100823.72;;;-0.29;98.53
16821;BME280;8527;49.740;6.604;2023-02-16T01:26:46;100825.75;;;-0.35;99.21
16821;BME280;8527;49.740;6.604;2023-02-16T01:31:45;100825.75;;;-0.35;99.24
16821;BME280;8527;49.740;6.604;2023-02-16T01:36:46;100822.50;;;-0.40;98.74
16821;BME280;8527;49.740;6.604;2023-02-16T01:42:09;100811.59;;;-0.49;99.00
16821;BME280;8527;49.740;6.604;2023-02-16T01:47:18;100807.63;;;-0.58;98.85
16821;BME280;8527;49.740;6.604;2023-02-16T01:52:26;100809.22;;;-0.53;99.07
16821;BME280;8527;49.740;6.604;2023-02-16T01:57:38;100804.06;;;-0.55;99.20
16821;BME280;8527;49.740;6.604;2023-02-16T02:02:40;100800.88;;;-0.62;99.12
16821;BME280;8527;49.740;6.604;2023-02-16T02:07:48;100800.88;;;-0.62;99.25
16821;BME280;8527;49.740;6.604;2023-02-16T02:13:01;100794.34;;;-0.71;99.05
16821;BME280;8527;49.740;6.604;2023-02-16T02:18:03;100789.38;;;-0.77;98.73
16821;BME280;8527;49.740;6.604;2023-02-16T02:23:32;100780.94;;;-0.82;98.46
16821;BME280;8527;49.740;6.604;2023-02-16T02:28:43;100783.03;;;-0.90;97.96
16821;BME280;8527;49.740;6.604;2023-02-16T02:33:50;100773.75;;;-0.96;98.63
16821;BME280;8527;49.740;6.604;2023-02-16T02:39:00;100781.78;;;-1.01;99.05
16821;BME280;8527;49.740;6.604;2023-02-16T02:44:05;100781.78;;;-1.01;99.28
16821;BME280;8527;49.740;6.604;2023-02-16T02:49:05;100781.06;;;-1.04;100.00
16821;BME280;8527;49.740;6.604;2023-02-16T02:54:06;100779.81;;;-0.95;100.00
16821;BME280;8527;49.740;6.604;2023-02-16T02:59:21;100781.50;;;-0.94;100.00
16821;BME280;8527;49.740;6.604;2023-02-16T03:04:33;100775.44;;;-0.95;100.00
16821;BME280;8527;49.740;6.604;2023-02-16T03:09:31;100775.72;;;-1.01;100.00
16821;BME280;8527;49.740;6.604;2023-02-16T03:14:33;100773.31;;;-1.06;100.00
16821;BME280;8527;49.740;6.604;2023-02-16T03:19:36;100771.00;;;-1.12;100.00
16821;BME280;8527;49.740;6.604;2023-02-16T03:24:47;100771.97;;;-1.15;100.00
16821;BME280;8527;49.740;6.604;2023-02-16T03:30:02;100761.69;;;-1.18;99.85
16821;BME280;8527;49.740;6.604;2023-02-16T03:35:02;100759.28;;;-1.22;99.57
16821;BME280;8527;49.740;6.604;2023-02-16T03:40:00;100755.78;;;-1.21;100.00
16821;BME280;8527;49.740;6.604;2023-02-16T03:45:15;100758.50;;;-1.24;99.97
16821;BME280;8527;49.740;6.604;2023-02-16T03:50:13;100760.31;;;-1.27;99.92
16821;BME280;8527;49.740;6.604;2023-02-16T03:55:12;100757.59;;;-1.23;100.00
16821;BME280;8527;49.740;6.604;2023-02-16T04:00:14;100753.94;;;-1.40;100.00
16821;BME280;8527;49.740;6.604;2023-02-16T04:05:13;100751.56;;;-1.45;100.00
16821;BME280;8527;49.740;6.604;2023-02-16T04:10:14;100761.97;;;-1.45;100.00
16821;BME280;8527;49.740;6.604;2023-02-16T04:15:18;100756.69;;;-1.43;100.00
16821;BME280;8527;49.740;6.604;2023-02-16T04:20:18;100758.53;;;-1.45;100.00
16821;BME280;8527;49.740;6.604;2023-02-16T04:25:17;100756.09;;;-1.50;99.75
16821;BME280;8527;49.740;6.604;2023-02-16T04:30:22;100768.00;;;-1.65;98.91
16821;BME280;8527;49.740;6.604;2023-02-16T04:35:21;100761.06;;;-1.64;99.31
16821;BME280;8527;49.740;6.604;2023-02-16T04:40:20;100771.31;;;-1.61;99.80
16821;BME280;8527;49.740;6.604;2023-02-16T04:45:21;100765.16;;;-1.59;99.98
16821;BME280;8527;49.740;6.604;2023-02-16T04:50:20;100762.88;;;-1.66;99.58
16821;BME280;8527;49.740;6.604;2023-02-16T04:55:21;100773.66;;;-1.76;99.51
16821;BME280;8527;49.740;6.604;2023-02-16T05:00:23;100771.97;;;-1.77;99.39
16821;BME280;8527;49.740;6.604;2023-02-16T05:05:21;100777.91;;;-1.73;100.00
16821;BME280;8527;49.740;6.604;2023-02-16T05:10:24;100765.50;;;-1.66;100.00
16821;BME280;8527;49.740;6.604;2023-02-16T05:15:25;100774.25;;;-1.69;100.00
16821;BME280;8527;49.740;6.604;2023-02-16T05:20:24;100781.81;;;-1.63;100.00
16821;BME280;8527;49.740;6.604;2023-02-16T05:25:42;100773.66;;;-1.76;100.00
16821;BME280;8527;49.740;6.604;2023-02-16T05:30:43;100773.03;;;-1.81;100.00
16821;BME280;8527;49.740;6.604;2023-02-16T05:35:42;100773.34;;;-1.89;100.00
16821;BME280;8527;49.740;6.604;2023-02-16T05:40:40;100777.69;;;-1.89;100.00
16821;BME280;8527;49.740;6.604;2023-02-16T05:45:38;100778.91;;;-1.98;100.00
16821;BME280;8527;49.740;6.604;2023-02-16T05:50:39;100780.06;;;-1.83;100.00
16821;BME280;8527;49.740;6.604;2023-02-16T05:55:38;100793.78;;;-2.02;100.00
16821;BME280;8527;49.740;6.604;2023-02-16T06:00:36;100795.16;;;-1.93;100.00
16821;BME280;8527;49.740;6.604;2023-02-16T06:05:35;100800.22;;;-1.90;100.00
16821;BME280;8527;49.740;6.604;2023-02-16T06:10:36;100803.88;;;-1.94;100.00
16821;BME280;8527;49.740;6.604;2023-02-16T06:15:34;100806.28;;;-1.89;100.00
16821;BME280;8527;49.740;6.604;2023-02-16T06:20:33;100807.25;;;-1.92;100.00
16821;BME280;8527;49.740;6.604;2023-02-16T06:25:31;100800.84;;;-2.05;100.00
16821;BME280;8527;49.740;6.604;2023-02-16T06:30:38;100815.94;;;-2.14;100.00
16821;BME280;8527;49.740;6.604;2023-02-16T06:35:37;100805.13;;;-2.04;100.00
16821;BME280;8527;49.740;6.604;2023-02-16T06:40:36;100806.78;;;-2.02;100.00
16821;BME280;8527;49.740;6.604;2023-02-16T06:45:38;100798.06;;;-2.01;100.00
16821;BME280;8527;49.740;6.604;2023-02-16T06:50:37;100799.41;;;-2.13;100.00
16821;BME280;8527;49.740;6.604;2023-02-16T06:55:35;100799.28;;;-2.09;100.00
16821;BME280;8527;49.740;6.604;2023-02-16T07:00:33;100802.31;;;-1.98;100.00
16821;BME280;8527;49.740;6.604;2023-02-16T07:05:36;100800.50;;;-1.96;100.00
16821;BME280;8527;49.740;6.604;2023-02-16T07:10:34;100794.88;;;-2.07;100.00
16821;BME280;8527;49.740;6.604;2023-02-16T07:15:33;100796.56;;;-2.06;100.00
16821;BME280;8527;49.740;6.604;2023-02-16T07:20:34;100807.03;;;-1.86;100.00
16821;BME280;8527;49.740;6.604;2023-02-16T07:25:35;100801.63;;;-1.60;100.00
16821;BME280;8527;49.740;6.604;2023-02-16T07:30:37;100798.78;;;-1.33;100.00
16821;BME280;8527;49.740;6.604;2023-02-16T07:35:41;100810.38;;;-1.20;100.00
16821;BME280;8527;49.740;6.604;2023-02-16T07:40:45;100806.44;;;-1.09;100.00
16821;BME280;8527;49.740;6.604;2023-02-16T07:45:45;100814.63;;;-0.58;100.00
16821;BME280;8527;49.740;6.604;2023-02-16T07:50:47;100826.22;;;-0.27;99.96
16821;BME280;8527;49.740;6.604;2023-02-16T07:55:50;100825.56;;;0.06;99.44
16821;BME280;8527;49.740;6.604;2023-02-16T08:00:49;100833.22;;;-0.08;99.56
16821;BME280;8527;49.740;6.604;2023-02-16T08:05:47;100830.47;;;0.12;100.00
16821;BME280;8527;49.740;6.604;2023-02-16T08:10:50;100835.13;;;0.06;100.00
16821;BME280;8527;49.740;6.604;2023-02-16T08:15:49;100831.16;;;0.16;100.00
16821;BME280;8527;49.740;6.604;2023-02-16T08:20:47;100824.22;;;0.34;100.00
16821;BME280;8527;49.740;6.604;2023-02-16T08:25:45;100825.28;;;0.48;100.00
16821;BME280;8527;49.740;6.604;2023-02-16T08:30:46;100811.19;;;0.52;100.00
16821;BME280;8527;49.740;6.604;2023-02-16T08:35:45;100802.16;;;0.75;100.00
16821;BME280;8527;49.740;6.604;2023-02-16T08:40:46;100792.00;;;0.87;100.00
16821;BME280;8527;49.740;6.604;2023-02-16T08:45:47;100800.13;;;0.98;100.00
16821;BME280;8527;49.740;6.604;2023-02-16T08:50:46;100802.09;;;1.10;100.00
16821;BME280;8527;49.740;6.604;2023-02-16T08:55:52;100797.44;;;1.33;100.00
16821;BME280;8527;49.740;6.604;2023-02-16T09:01:02;100796.84;;;1.60;100.00
16821;BME280;8527;49.740;6.604;2023-02-16T09:06:04;100797.31;;;1.99;100.00
16821;BME280;8527;49.740;6.604;2023-02-16T09:11:04;100801.63;;;2.00;99.54
16821;BME280;8527;49.740;6.604;2023-02-16T09:16:07;100809.97;;;2.07;100.00
16821;BME280;8527;49.740;6.604;2023-02-16T09:21:08;100806.69;;;2.03;100.00
16821;BME280;8527;49.740;6.604;2023-02-16T09:26:10;100801.97;;;2.10;99.96
16821;BME280;8527;49.740;6.604;2023-02-16T09:31:13;100808.97;;;2.09;100.00
16821;BME280;8527;49.740;6.604;2023-02-16T09:36:14;100812.03;;;2.32;100.00
16821;BME280;8527;49.740;6.604;2023-02-16T09:41:21;100822.38;;;2.50;100.00
16821;BME280;8527;49.740;6.604;2023-02-16T09:46:29;100814.72;;;2.61;100.00
16821;BME280;8527;49.740;6.604;2023-02-16T09:51:32;100819.38;;;2.87;100.00
16821;BME280;8527;49.740;6.604;2023-02-16T09:56:35;100820.78;;;3.21;99.87
16821;BME280;8527;49.740;6.604;2023-02-16T10:01:46;100816.88;;;3.71;98.35
16821;BME280;8527;49.740;6.604;2023-02-16T10:06:56;100803.25;;;4.06;96.10
16821;BME280;8527;49.740;6.604;2023-02-16T10:12:06;100802.44;;;4.46;95.29
16821;BME280;8527;49.740;6.604;2023-02-16T10:17:16;100773.53;;;4.85;94.28
16821;BME280;8527;49.740;6.604;2023-02-16T10:22:26;100780.16;;;5.03;94.66
16821;BME280;8527;49.740;6.604;2023-02-16T10:27:34;100783.06;;;5.12;92.99
16821;BME280;8527;49.740;6.604;2023-02-16T10:32:42;100777.09;;;5.60;93.50
16821;BME280;8527;49.740;6.604;2023-02-16T10:37:55;100785.31;;;6.28;90.69
16821;BME280;8527;49.740;6.604;2023-02-16T10:43:01;100795.03;;;6.86;87.99
16821;BME280;8527;49.740;6.604;2023-02-16T10:48:05;100787.88;;;7.11;83.65
16821;BME280;8527;49.740;6.604;2023-02-16T10:53:08;100793.50;;;7.29;83.24
16821;BME280;8527;49.740;6.604;2023-02-16T10:58:19;100792.16;;;7.46;80.96
16821;BME280;8527;49.740;6.604;2023-02-16T11:03:27;100790.53;;;7.78;79.67
16821;BME280;8527;49.740;6.604;2023-02-16T11:08:46;100791.34;;;7.90;78.72
16821;BME280;8527;49.740;6.604;2023-02-16T11:13:47;100785.69;;;7.95;80.39
16821;BME280;8527;49.740;6.604;2023-02-16T11:18:55;100782.44;;;7.91;79.43
16821;BME280;8527;49.740;6.604;2023-02-16T11:23:58;100769.72;;;7.96;78.39
16821;BME280;8527;49.740;6.604;2023-02-16T11:29:06;100765.03;;;7.88;79.30
16821;BME280;8527;49.740;6.604;2023-02-16T11:34:20;100760.81;;;7.97;78.44
16821;BME280;8527;49.740;6.604;2023-02-16T11:39:24;100756.41;;;8.08;78.68
16821;BME280;8527;49.740;6.604;2023-02-16T11:44:30;100745.34;;;8.14;77.85
16821;BME280;8527;49.740;6.604;2023-02-16T11:49:37;100742.84;;;8.34;77.17
16821;BME280;8527;49.740;6.604;2023-02-16T11:54:35;100728.34;;;8.49;77.05
16821;BME280;8527;49.740;6.604;2023-02-16T11:59:36;100711.69;;;8.58;76.36
16821;BME280;8527;49.740;6.604;2023-02-16T12:05:15;100706.38;;;8.80;77.06
16821;BME280;8527;49.740;6.604;2023-02-16T12:10:21;100696.13;;;8.96;76.78
16821;BME280;8527;49.740;6.604;2023-02-16T12:15:26;100698.38;;;9.01;76.44
16821;BME280;8527;49.740;6.604;2023-02-16T12:20:39;100693.78;;;9.03;76.61
16821;BME280;8527;49.740;6.604;2023-02-16T12:25:45;100695.75;;;9.11;77.70
16821;BME280;8527;49.740;6.604;2023-02-16T12:30:56;100689.25;;;9.25;77.71
16821;BME280;8527;49.740;6.604;2023-02-16T12:36:11;100688.56;;;9.42;76.80
16821;BME280;8527;49.740;6.604;2023-02-16T12:41:18;100684.13;;;9.53;77.29
16821;BME280;8527;49.740;6.604;2023-02-16T12:46:26;100687.59;;;9.63;75.79
16821;BME280;8527;49.740;6.604;2023-02-16T12:51:32;100685.50;;;9.67;77.85
16821;BME280;8527;49.740;6.604;2023-02-16T12:56:36;100683.81;;;9.66;78.51
16821;BME280;8527;49.740;6.604;2023-02-16T13:01:36;100672.13;;;9.68;79.02
16821;BME280;8527;49.740;6.604;2023-02-16T13:06:42;100660.84;;;9.56;79.72
16821;BME280;8527;49.740;6.604;2023-02-16T13:11:45;100668.63;;;9.58;80.55
16821;BME280;8527;49.740;6.604;2023-02-16T13:16:50;100660.81;;;9.47;82.75
16821;BME280;8527;49.740;6.604;2023-02-16T13:27:21;100668.22;;;9.53;83.89
16821;BME280;8527;49.740;6.604;2023-02-16T13:32:46;100670.44;;;9.48;83.22
16821;BME280;8527;49.740;6.604;2023-02-16T13:38:09;100655.63;;;9.35;84.70
16821;BME280;8527;49.740;6.604;2023-02-16T13:43:28;100650.78;;;9.40;84.38
16821;BME280;8527;49.740;6.604;2023-02-16T13:48:31;100650.22;;;9.37;83.24
16821;BME280;8527;49.740;6.604;2023-02-16T13:53:38;100649.81;;;9.41;83.68
16821;BME280;8527;49.740;6.604;2023-02-16T13:58:40;100647.56;;;9.37;81.82
16821;BME280;8527;49.740;6.604;2023-02-16T14:03:41;100639.63;;;9.37;82.89
16821;BME280;8527;49.740;6.604;2023-02-16T14:14:26;100652.16;;;9.35;86.42
16821;BME280;8527;49.740;6.604;2023-02-16T14:19:25;100640.88;;;9.23;85.19
16821;BME280;8527;49.740;6.604;2023-02-16T14:24:32;100636.28;;;9.25;88.18
16821;BME280;8527;49.740;6.604;2023-02-16T14:29:36;100632.34;;;9.09;89.46
16821;BME280;8527;49.740;6.604;2023-02-16T14:34:38;100628.59;;;9.02;87.72
16821;BME280;8527;49.740;6.604;2023-02-16T14:39:42;100619.25;;;9.08;88.43
16821;BME280;8527;49.740;6.604;2023-02-16T14:44:54;100620.63;;;9.02;90.21
16821;BME280;8527;49.740;6.604;2023-02-16T14:50:17;100606.72;;;9.10;89.94
16821;BME280;8527;49.740;6.604;2023-02-16T14:55:55;100619.25;;;9.08;90.98
16821;BME280;8527;49.740;6.604;2023-02-16T15:01:04;100604.19;;;8.89;93.44
16821;BME280;8527;49.740;6.604;2023-02-16T15:06:04;100611.28;;;8.88;93.16
16821;BME280;8527;49.740;6.604;2023-02-16T15:11:15;100602.66;;;8.96;93.16
16821;BME280;8527;49.740;6.604;2023-02-16T15:16:21;100600.56;;;8.99;93.45
16821;BME280;8527;49.740;6.604;2023-02-16T15:21:22;100604.59;;;9.04;91.58
16821;BME280;8527;49.740;6.604;2023-02-16T15:26:31;100602.53;;;9.07;90.73
16821;BME280;8527;49.740;6.604;2023-02-16T15:31:32;100598.50;;;9.13;91.66
16821;BME280;8527;49.740;6.604;2023-02-16T15:36:33;100593.63;;;9.18;92.58
16821;BME280;8527;49.740;6.604;2023-02-16T15:41:37;100594.63;;;9.17;90.84
16821;BME280;8527;49.740;6.604;2023-02-16T15:46:36;100592.09;;;9.15;90.09
16821;BME280;8527;49.740;6.604;2023-02-16T15:51:36;100602.56;;;9.27;89.12
16821;BME280;8527;49.740;6.604;2023-02-16T15:56:43;100592.38;;;9.32;87.30
16821;BME280;8527;49.740;6.604;2023-02-16T16:01:45;100592.09;;;9.35;86.74
16821;BME280;8527;49.740;6.604;2023-02-16T16:06:44;100582.91;;;9.29;85.61
16821;BME280;8527;49.740;6.604;2023-02-16T16:11:45;100587.50;;;9.27;87.40
16821;BME280;8527;49.740;6.604;2023-02-16T16:16:44;100585.00;;;9.26;88.46
16821;BME280;8527;49.740;6.604;2023-02-16T16:21:50;100575.94;;;9.19;88.67
16821;BME280;8527;49.740;6.604;2023-02-16T16:26:53;100579.56;;;9.08;90.85
16821;BME280;8527;49.740;6.604;2023-02-16T16:31:58;100571.75;;;9.06;90.69
16821;BME280;8527;49.740;6.604;2023-02-16T16:36:59;100579.28;;;9.01;91.30
16821;BME280;8527;49.740;6.604;2023-02-16T16:42:31;100574.09;;;8.99;90.50
16821;BME280;8527;49.740;6.604;2023-02-16T16:47:33;100575.47;;;8.94;91.39
16821;BME280;8527;49.740;6.604;2023-02-16T16:52:44;100574.50;;;8.85;92.10
16821;BME280;8527;49.740;6.604;2023-02-16T16:57:50;100579.50;;;8.78;92.81
16821;BME280;8527;49.740;6.604;2023-02-16T17:02:52;100574.50;;;8.75;93.86
16821;BME280;8527;49.740;6.604;2023-02-16T17:07:50;100580.31;;;8.69;92.17
16821;BME280;8527;49.740;6.604;2023-02-16T17:12:54;100577.53;;;8.70;91.45
16821;BME280;8527;49.740;6.604;2023-02-16T17:17:54;100579.19;;;8.62;92.12
16821;BME280;8527;49.740;6.604;2023-02-16T17:22:52;100579.31;;;8.60;92.43
16821;BME280;8527;49.740;6.604;2023-02-16T17:27:54;100585.16;;;8.33;93.59
16821;BME280;8527;49.740;6.604;2023-02-16T17:32:52;100585.06;;;8.34;92.81
16821;BME280;8527;49.740;6.604;2023-02-16T17:37:50;100579.72;;;8.24;93.34
16821;BME280;8527;49.740;6.604;2023-02-16T17:42:54;100592.06;;;8.14;93.65
16821;BME280;8527;49.740;6.604;2023-02-16T17:47:56;100591.03;;;8.05;93.72
16821;BME280;8527;49.740;6.604;2023-02-16T17:52:57;100579.31;;;7.98;93.53
16821;BME280;8527;49.740;6.604;2023-02-16T17:58:01;100584.16;;;7.93;93.87
16821;BME280;8527;49.740;6.604;2023-02-16T18:03:02;100581.00;;;7.78;94.95
16821;BME280;8527;49.740;6.604;2023-02-16T18:08:03;100583.16;;;7.84;94.08
16821;BME280;8527;49.740;6.604;2023-02-16T18:13:04;100585.22;;;7.80;94.22
16821;BME280;8527;49.740;6.604;2023-02-16T18:18:07;100588.88;;;7.68;93.92
16821;BME280;8527;49.740;6.604;2023-02-16T18:23:07;100588.88;;;7.68;94.09
16821;BME280;8527;49.740;6.604;2023-02-16T18:28:12;100588.66;;;7.59;93.75
16821;BME280;8527;49.740;6.604;2023-02-16T18:33:12;100582.41;;;7.39;95.38
16821;BME280;8527;49.740;6.604;2023-02-16T18:38:11;100582.69;;;7.36;95.15
16821;BME280;8527;49.740;6.604;2023-02-16T18:43:15;100582.19;;;7.31;95.51
16821;BME280;8527;49.740;6.604;2023-02-16T18:48:14;100582.00;;;7.23;95.83
16821;BME280;8527;49.740;6.604;2023-02-16T18:53:12;100585.13;;;7.16;96.19
16821;BME280;8527;49.740;6.604;2023-02-16T18:58:15;100596.53;;;7.17;95.98
16821;BME280;8527;49.740;6.604;2023-02-16T19:03:13;100578.56;;;7.11;97.01
16821;BME280;8527;49.740;6.604;2023-02-16T19:08:12;100597.50;;;7.16;96.69
16821;BME280;8527;49.740;6.604;2023-02-16T19:13:10;100588.97;;;7.24;95.56
16821;BME280;8527;49.740;6.604;2023-02-16T19:18:11;100597.84;;;7.23;96.47
16821;BME280;8527;49.740;6.604;2023-02-16T19:23:10;100610.19;;;7.22;96.13
16821;BME280;8527;49.740;6.604;2023-02-16T19:28:08;100611.66;;;7.15;96.90
16821;BME280;8527;49.740;6.604;2023-02-16T19:33:13;100605.28;;;7.17;97.00
16821;BME280;8527;49.740;6.604;2023-02-16T19:38:11;100600.53;;;7.11;98.00
16821;BME280;8527;49.740;6.604;2023-02-16T19:43:12;100603.41;;;7.08;98.43
16821;BME280;8527;49.740;6.604;2023-02-16T19:48:13;100599.94;;;7.08;98.40
16821;BME280;8527;49.740;6.604;2023-02-16T19:53:12;100602.44;;;7.09;99.23
16821;BME280;8527;49.740;6.604;2023-02-16T19:58:13;100609.25;;;7.12;99.02
16821;BME280;8527;49.740;6.604;2023-02-16T20:03:17;100604.69;;;7.14;99.23
16821;BME280;8527;49.740;6.604;2023-02-16T20:08:16;100601.22;;;7.13;99.13
16821;BME280;8527;49.740;6.604;2023-02-16T20:13:14;100600.25;;;7.14;99.84
16821;BME280;8527;49.740;6.604;2023-02-16T20:18:13;100600.97;;;7.16;100.00
16821;BME280;8527;49.740;6.604;2023-02-16T20:23:14;100588.81;;;7.25;99.17
16821;BME280;8527;49.740;6.604;2023-02-16T20:28:20;100579.81;;;7.28;99.41
16821;BME280;8527;49.740;6.604;2023-02-16T20:33:20;100574.06;;;7.34;99.18
16821;BME280;8527;49.740;6.604;2023-02-16T20:38:21;100572.94;;;7.37;99.07
16821;BME280;8527;49.740;6.604;2023-02-16T20:43:20;100573.78;;;7.37;99.37
16821;BME280;8527;49.740;6.604;2023-02-16T20:48:18;100577.72;;;7.43;99.11
16821;BME280;8527;49.740;6.604;2023-02-16T20:53:17;100573.84;;;7.47;98.99
16821;BME280;8527;49.740;6.604;2023-02-16T20:58:21;100571.28;;;7.57;97.96
16821;BME280;8527;49.740;6.604;2023-02-16T21:03:19;100579.28;;;7.67;97.02
16821;BME280;8527;49.740;6.604;2023-02-16T21:08:24;100575.34;;;7.82;95.41
16821;BME280;8527;49.740;6.604;2023-02-16T21:13:25;100568.09;;;8.06;93.75
16821;BME280;8527;49.740;6.604;2023-02-16T21:18:23;100579.34;;;8.08;93.43
16821;BME280;8527;49.740;6.604;2023-02-16T21:23:21;100572.91;;;8.22;92.49
16821;BME280;8527;49.740;6.604;2023-02-16T21:28:20;100576.06;;;8.47;90.71
16821;BME280;8527;49.740;6.604;2023-02-16T21:33:21;100570.75;;;8.37;91.43
16821;BME280;8527;49.740;6.604;2023-02-16T21:38:23;100566.41;;;8.36;91.93
16821;BME280;8527;49.740;6.604;2023-02-16T21:43:29;100563.63;;;8.37;91.65
16821;BME280;8527;49.740;6.604;2023-02-16T21:48:30;100562.22;;;8.33;92.42
16821;BME280;8527;49.740;6.604;2023-02-16T21:53:44;100562.50;;;8.30;93.78
16821;BME280;8527;49.740;6.604;2023-02-16T21:58:43;100563.19;;;8.22;94.63
16821;BME280;8527;49.740;6.604;2023-02-16T22:03:44;100565.81;;;8.22;95.05
16821;BME280;8527;49.740;6.604;2023-02-16T22:08:42;100561.47;;;8.21;95.59
16821;BME280;8527;49.740;6.604;2023-02-16T22:13:41;100569.66;;;8.18;95.74
16821;BME280;8527;49.740;6.604;2023-02-16T22:18:40;100563.31;;;8.30;95.26
16821;BME280;8527;49.740;6.604;2023-02-16T22:23:43;100559.56;;;8.23;96.69
16821;BME280;8527;49.740;6.604;2023-02-16T22:28:45;100561.63;;;8.20;98.10
16821;BME280;8527;49.740;6.604;2023-02-16T22:33:44;100553.53;;;8.21;99.34
16821;BME280;8527;49.740;6.604;2023-02-16T22:38:46;100549.50;;;8.17;99.79
16821;BME280;8527;49.740;6.604;2023-02-16T22:43:44;100547.81;;;8.16;100.00
16821;BME280;8527;49.740;6.604;2023-02-16T22:48:43;100551.72;;;8.12;100.00
16821;BME280;8527;49.740;6.604;2023-02-16T22:53:44;100533.06;;;8.13;100.00
16821;BME280;8527;49.740;6.604;2023-02-16T22:58:44;100554.06;;;8.05;100.00
16821;BME280;8527;49.740;6.604;2023-02-16T23:03:45;100554.16;;;8.03;100.00
16821;BME280;8527;49.740;6.604;2023-02-16T23:08:50;100552.38;;;8.04;100.00
16821;BME280;8527;49.740;6.604;2023-02-16T23:13:49;100563.38;;;8.09;100.00
16821;BME280;8527;49.740;6.604;2023-02-16T23:18:48;100563.00;;;8.14;100.00
16821;BME280;8527;49.740;6.604;2023-02-16T23:23:50;100561.47;;;8.21;100.00
16821;BME280;8527;49.740;6.604;2023-02-16T23:28:50;100567.88;;;8.19;100.00
16821;BME280;8527;49.740;6.604;2023-02-16T23:33:49;100557.31;;;8.19;100.00
16821;BME280;8527;49.740;6.604;2023-02-16T23:38:50;100558.28;;;8.18;100.00
16821;BME280;8527;49.740;6.604;2023-02-16T23:43:49;100564.25;;;8.20;100.00
16821;BME280;8527;49.740;6.604;2023-02-16T23:48:48;100566.50;;;8.24;100.00
16821;BME280;8527;49.740;6.604;2023-02-16T23:53:50;100556.19;;;8.21;100.00
16821;BME280;8527;49.740;6.604;2023-02-16T23:58:56;100543.44;;;8.36;100.00
